Time;durP1;ratioP1;P1;durP2;ratioP2;P2;SDS_P1;SDS_P2;PMS_P1;PMS_P2;Temp;Humidity;BMP_temperature;BMP_pressure;BME280_temperature;BME280_humidity;BME280_pressure;Samples;Min_cycle;Max_cycle;Signal;HPM_P1;HPM_P2
2023/09/29 00:00:25;;;;;;;6.20;4.73;;;;;;;16.84;61.59;96581.78;4967372;28;20425;-68
2023/09/29 00:02:53;;;;;;;8.30;4.43;;;;;;;16.76;61.71;96588.50;4967533;28;20183;-67
2023/09/29 00:05:18;;;;;;;7.03;4.30;;;;;;;16.79;61.67;96577.72;4982248;28;20192;-69
2023/09/29 00:07:44;;;;;;;5.00;4.50;;;;;;;16.72;61.87;96582.53;4986584;28;20416;-69
2023/09/29 00:10:16;;;;;;;5.60;4.33;;;;;;;16.57;62.12;96573.81;4970055;28;20213;-69
2023/09/29 00:12:42;;;;;;;6.47;4.83;;;;;;;16.55;62.41;96574.84;4960442;28;20173;-69
2023/09/29 00:15:08;;;;;;;6.17;4.50;;;;;;;16.57;62.30;96581.75;4966876;28;20495;-70
2023/09/29 00:17:34;;;;;;;9.03;5.60;;;;;;;16.52;62.51;96584.69;4966970;28;20266;-70
2023/09/29 00:20:00;;;;;;;32.57;6.33;;;;;;;16.55;62.44;96577.50;4968724;28;20542;-69
2023/09/29 00:22:25;;;;;;;9.07;4.70;;;;;;;16.51;62.40;96577.72;4970763;28;20189;-68
2023/09/29 00:24:51;;;;;;;6.33;4.13;;;;;;;16.44;62.76;96579.06;4970769;28;20551;-68
2023/09/29 00:27:16;;;;;;;5.73;4.50;;;;;;;16.35;62.51;96579.66;4970583;28;20169;-69
2023/09/29 00:29:42;;;;;;;5.57;4.50;;;;;;;16.40;62.60;96580.19;4970317;28;20209;-68
2023/09/29 00:32:07;;;;;;;8.03;4.53;;;;;;;16.35;62.74;96574.34;4970860;28;20231;-67
2023/09/29 00:34:33;;;;;;;8.90;4.70;;;;;;;16.26;63.34;96577.59;4971079;28;20177;-68
2023/09/29 00:36:58;;;;;;;6.57;5.03;;;;;;;16.25;63.34;96575.88;4970788;28;20236;-69
2023/09/29 00:39:24;;;;;;;5.90;4.10;;;;;;;16.25;63.72;96573.22;4970838;28;20243;-69
2023/09/29 00:41:50;;;;;;;6.50;4.83;;;;;;;16.18;63.67;96578.09;4970702;28;20166;-69
2023/09/29 00:44:16;;;;;;;7.03;4.70;;;;;;;16.16;63.79;96579.09;4970578;28;20572;-68
2023/09/29 00:46:42;;;;;;;7.93;4.83;;;;;;;16.03;64.79;96579.88;4970256;28;20181;-69
2023/09/29 00:49:09;;;;;;;7.43;4.53;;;;;;;15.96;64.74;96583.84;4970143;28;20280;-68
2023/09/29 00:51:35;;;;;;;5.50;4.90;;;;;;;15.95;65.01;96582.16;4970379;28;20843;-70
2023/09/29 00:54:08;;;;;;;8.53;5.60;;;;;;;15.92;65.84;96589.44;4970608;28;20837;-69
2023/09/29 00:56:37;;;;;;;9.33;5.73;;;;;;;15.97;65.75;96592.66;4970117;28;20491;-70
2023/09/29 00:59:06;;;;;;;10.27;6.43;;;;;;;15.87;66.43;96582.66;4969801;28;20449;-71
2023/09/29 01:01:34;;;;;;;11.20;5.57;;;;;;;15.92;66.06;96589.44;4962260;28;20404;-70
2023/09/29 01:03:59;;;;;;;6.87;5.70;;;;;;;15.95;66.10;96583.97;4974641;28;20769;-70
2023/09/29 01:06:25;;;;;;;7.80;5.73;;;;;;;15.83;66.30;96582.94;4989539;28;20416;-70
2023/09/29 01:08:50;;;;;;;6.90;5.27;;;;;;;15.75;66.51;96583.41;4989686;28;20563;-70
2023/09/29 01:11:17;;;;;;;6.97;5.43;;;;;;;15.69;66.00;96580.28;4989534;28;20291;-69
2023/09/29 01:13:42;;;;;;;32.40;8.57;;;;;;;15.77;66.05;96584.16;4989735;28;20169;-68
2023/09/29 01:16:08;;;;;;;9.47;5.57;;;;;;;15.73;66.04;96572.09;4989319;28;20419;-69
2023/09/29 01:18:34;;;;;;;9.40;5.67;;;;;;;15.65;66.27;96577.78;4988166;28;20276;-69
2023/09/29 01:21:02;;;;;;;6.60;5.40;;;;;;;15.74;66.56;96576.41;4969835;28;20459;-68
2023/09/29 01:23:32;;;;;;;10.00;7.67;;;;;;;15.72;66.52;96578.31;4969924;28;20978;-69
2023/09/29 01:25:59;;;;;;;8.33;5.90;;;;;;;15.62;66.63;96580.63;4969664;28;20416;-69
2023/09/29 01:28:24;;;;;;;7.93;6.03;;;;;;;15.64;66.72;96584.03;4969784;28;20483;-68
2023/09/29 01:30:53;;;;;;;8.17;5.90;;;;;;;15.58;66.90;96578.25;4969632;28;20513;-70
2023/09/29 01:33:21;;;;;;;8.40;6.20;;;;;;;15.60;66.78;96573.72;4969568;28;20178;-69
2023/09/29 01:35:50;;;;;;;7.27;6.17;;;;;;;15.59;66.98;96582.59;4968955;28;20424;-70
2023/09/29 01:38:15;;;;;;;8.93;5.57;;;;;;;15.58;66.89;96572.97;4969262;28;20441;-70
2023/09/29 01:40:44;;;;;;;6.73;5.60;;;;;;;15.43;66.91;96570.31;4961678;28;20440;-69
2023/09/29 01:43:10;;;;;;;7.77;5.13;;;;;;;15.35;67.77;96583.13;4969650;28;20722;-69
2023/09/29 01:45:37;;;;;;;8.37;5.50;;;;;;;15.36;67.64;96573.44;4969427;28;20519;-69
2023/09/29 01:48:04;;;;;;;8.17;5.20;;;;;;;15.45;67.35;96579.00;4969216;28;20416;-69
2023/09/29 01:50:32;;;;;;;7.67;5.90;;;;;;;15.36;67.79;96578.72;4968715;28;20489;-69
2023/09/29 01:52:58;;;;;;;7.47;5.57;;;;;;;15.19;68.12;96574.44;4969017;28;20428;-68
2023/09/29 01:55:24;;;;;;;9.00;5.93;;;;;;;15.30;67.75;96576.44;4968976;28;20421;-69
2023/09/29 01:57:51;;;;;;;12.60;5.70;;;;;;;15.29;67.89;96578.25;4968711;28;20201;-69
2023/09/29 02:00:28;;;;;;;12.83;6.13;;;;;;;15.28;67.85;96579.16;4968986;28;20424;-69
2023/09/29 02:02:55;;;;;;;8.37;5.50;;;;;;;15.26;67.83;96581.06;4968896;28;20895;-67
2023/09/29 02:05:20;;;;;;;10.13;6.50;;;;;;;15.14;68.07;96587.06;4968700;28;20443;-69
2023/09/29 02:07:47;;;;;;;10.17;5.90;;;;;;;15.09;68.43;96586.50;4968568;28;20421;-69
2023/09/29 02:10:18;;;;;;;10.23;6.17;;;;;;;15.13;67.94;96590.66;4968613;28;20216;-71
2023/09/29 02:12:48;;;;;;;14.57;6.20;;;;;;;15.02;67.85;96586.00;4969252;28;20428;-70
2023/09/29 02:15:17;;;;;;;10.23;6.03;;;;;;;15.07;67.71;96593.66;4968464;28;21214;-69
2023/09/29 02:17:44;;;;;;;9.97;5.30;;;;;;;15.12;67.70;96594.22;4968448;28;20416;-69
2023/09/29 02:20:29;;;;;;;7.33;5.60;;;;;;;14.99;67.59;96584.38;4965092;28;20436;-70
2023/09/29 02:22:55;;;;;;;6.93;5.40;;;;;;;14.82;68.55;96588.00;4968723;28;20441;-70
2023/09/29 02:25:25;;;;;;;7.87;5.80;;;;;;;14.81;68.60;96591.59;4968758;28;20417;-70
2023/09/29 02:27:54;;;;;;;7.80;6.20;;;;;;;14.60;69.11;96583.13;4968480;28;20444;-69
2023/09/29 02:30:19;;;;;;;17.60;6.07;;;;;;;14.43;69.93;96580.53;4968413;28;20460;-70
2023/09/29 02:32:45;;;;;;;13.17;6.73;;;;;;;14.40;69.89;96578.91;4968514;28;20417;-71
2023/09/29 02:35:10;;;;;;;11.53;5.93;;;;;;;14.55;69.26;96584.31;4968420;28;20264;-70
2023/09/29 02:37:36;;;;;;;11.53;6.03;;;;;;;14.47;69.59;96587.34;4968147;28;20751;-70
2023/09/29 02:40:06;;;;;;;15.80;6.60;;;;;;;14.66;69.07;96589.84;4968070;28;20197;-69
2023/09/29 02:42:32;;;;;;;28.73;8.20;;;;;;;14.72;68.34;96586.84;4967536;28;20256;-70
2023/09/29 02:44:57;;;;;;;24.33;8.03;;;;;;;14.70;68.50;96590.53;4968569;28;21027;-70
2023/09/29 02:47:23;;;;;;;9.27;5.30;;;;;;;14.78;68.25;96589.13;4968362;28;20190;-70
2023/09/29 02:49:48;;;;;;;6.70;5.57;;;;;;;14.79;68.23;96595.28;4968134;28;20212;-70
2023/09/29 02:52:14;;;;;;;7.57;6.23;;;;;;;14.78;68.35;96588.28;4968335;28;20684;-68
2023/09/29 02:54:39;;;;;;;7.90;5.37;;;;;;;14.64;68.67;96588.22;4968088;28;20188;-70
2023/09/29 02:57:05;;;;;;;9.30;5.57;;;;;;;14.74;68.27;96586.75;4967679;28;21052;-69
2023/09/29 02:59:37;;;;;;;7.03;5.57;;;;;;;14.74;68.23;96581.47;4967431;28;20201;-69
2023/09/29 03:02:04;;;;;;;5.83;4.73;;;;;;;14.68;68.31;96585.31;4967965;28;20185;-69
2023/09/29 03:04:29;;;;;;;9.50;5.43;;;;;;;14.74;68.08;96586.75;4967579;28;20467;-68
2023/09/29 03:06:56;;;;;;;7.57;6.03;;;;;;;14.61;68.35;96587.44;4967575;28;20416;-69
2023/09/29 03:09:22;;;;;;;6.20;5.60;;;;;;;14.72;67.99;96578.09;4967029;28;20197;-70
2023/09/29 03:11:47;;;;;;;6.43;5.00;;;;;;;14.59;68.17;96585.84;4967587;28;20428;-70
2023/09/29 03:14:16;;;;;;;7.60;6.17;;;;;;;14.54;68.27;96586.09;4967812;28;20178;-70
2023/09/29 03:16:41;;;;;;;10.27;5.33;;;;;;;14.60;67.76;96584.91;4967605;28;20500;-70
2023/09/29 03:19:08;;;;;;;10.17;6.00;;;;;;;14.48;68.18;96581.16;4967802;28;21066;-71
2023/09/29 03:21:34;;;;;;;7.70;5.40;;;;;;;14.50;68.11;96584.53;4967946;28;20173;-70
2023/09/29 03:24:00;;;;;;;12.37;5.80;;;;;;;14.37;68.48;96584.38;4967517;28;20435;-69
2023/09/29 03:26:26;;;;;;;7.33;6.10;;;;;;;14.31;68.33;96578.59;4967670;28;20188;-69
2023/09/29 03:28:54;;;;;;;7.43;5.40;;;;;;;14.16;68.88;96578.50;4967106;28;21051;-70
2023/09/29 03:31:22;;;;;;;6.10;5.27;;;;;;;14.08;69.67;96578.09;4967485;28;20461;-69
2023/09/29 03:33:48;;;;;;;9.50;5.47;;;;;;;14.05;69.56;96583.50;4967467;28;20803;-69
2023/09/29 03:36:14;;;;;;;6.60;4.80;;;;;;;14.04;69.45;96592.38;4967080;28;20447;-68
2023/09/29 03:38:41;;;;;;;5.60;5.00;;;;;;;14.17;69.18;96590.78;4966835;28;20193;-69
2023/09/29 03:41:08;;;;;;;11.40;5.80;;;;;;;14.23;68.94;96591.38;4967143;28;20420;-69
2023/09/29 03:43:33;;;;;;;6.93;5.20;;;;;;;14.30;68.50;96592.75;4967263;28;20447;-69
2023/09/29 03:45:59;;;;;;;10.30;5.70;;;;;;;14.29;68.65;96598.94;4966989;28;20420;-68
2023/09/29 03:48:25;;;;;;;6.63;5.10;;;;;;;14.25;68.81;96595.63;4967324;28;20704;-69
2023/09/29 03:50:51;;;;;;;6.83;6.10;;;;;;;14.29;68.35;96591.88;4966977;28;20215;-68
2023/09/29 03:53:17;;;;;;;7.63;5.70;;;;;;;14.23;68.74;96586.09;4967034;28;20947;-70
2023/09/29 03:55:43;;;;;;;9.13;6.50;;;;;;;14.25;68.58;96598.28;4967214;28;20212;-70
2023/09/29 03:58:09;;;;;;;10.00;6.43;;;;;;;14.25;68.76;96594.78;4967302;28;21054;-67
2023/09/29 04:00:34;;;;;;;7.33;5.53;;;;;;;14.33;68.17;96595.19;4967795;28;20567;-70
2023/09/29 04:03:00;;;;;;;12.10;5.87;;;;;;;14.29;68.36;96601.56;4967644;28;20919;-70
2023/09/29 04:05:25;;;;;;;9.00;5.87;;;;;;;14.26;68.15;96597.31;4967798;28;20668;-68
2023/09/29 04:07:50;;;;;;;8.83;5.63;;;;;;;14.28;68.30;96594.59;4967117;28;20169;-69
2023/09/29 04:10:16;;;;;;;6.40;5.60;;;;;;;14.26;68.41;96599.13;4967430;28;20241;-69
2023/09/29 04:12:44;;;;;;;11.70;6.70;;;;;;;14.18;68.46;96594.25;4967381;28;20177;-69
2023/09/29 04:15:10;;;;;;;9.70;6.57;;;;;;;14.29;68.12;96596.28;4967183;28;20219;-68
2023/09/29 04:17:36;;;;;;;11.30;5.70;;;;;;;14.02;68.89;96585.47;4966811;28;20546;-68
2023/09/29 04:20:02;;;;;;;14.50;5.80;;;;;;;14.06;68.87;96582.59;4966597;28;20228;-69
2023/09/29 04:22:28;;;;;;;11.07;5.80;;;;;;;14.00;68.92;96598.75;4966945;28;20191;-68
2023/09/29 04:24:53;;;;;;;7.17;4.97;;;;;;;14.03;69.12;96597.72;4967307;28;20412;-70
2023/09/29 04:27:19;;;;;;;6.60;5.90;;;;;;;13.79;69.63;96603.41;4967633;28;20177;-71
2023/09/29 04:29:44;;;;;;;10.87;5.87;;;;;;;13.81;69.81;96598.91;4970679;28;20609;-70
2023/09/29 04:32:10;;;;;;;7.50;4.93;;;;;;;13.79;69.50;96598.13;4972838;28;20205;-70
2023/09/29 04:34:35;;;;;;;19.80;6.70;;;;;;;13.71;69.76;96605.59;4973198;28;20252;-69
2023/09/29 04:37:01;;;;;;;8.87;5.50;;;;;;;13.69;69.92;96596.91;4973629;28;20309;-69
2023/09/29 04:39:26;;;;;;;7.30;6.10;;;;;;;13.66;69.65;96605.00;4973606;28;20202;-69
2023/09/29 04:41:51;;;;;;;10.10;5.40;;;;;;;13.84;69.26;96597.88;4972094;28;20815;-70
2023/09/29 04:44:18;;;;;;;13.33;7.27;;;;;;;13.85;69.01;96592.53;4970556;28;20840;-70
2023/09/29 04:46:44;;;;;;;8.80;6.37;;;;;;;13.67;69.48;96598.78;4971419;28;20185;-68
2023/09/29 04:49:10;;;;;;;9.77;5.80;;;;;;;13.62;69.48;96595.53;4967796;28;20452;-70
2023/09/29 04:51:36;;;;;;;6.60;5.90;;;;;;;13.55;69.77;96595.00;4966943;28;20461;-70
2023/09/29 04:54:02;;;;;;;7.43;6.37;;;;;;;13.45;69.96;96593.78;4966776;28;20260;-70
2023/09/29 04:56:28;;;;;;;9.10;6.30;;;;;;;13.41;70.23;96595.72;4967886;28;20809;-70
2023/09/29 04:58:53;;;;;;;11.83;6.03;;;;;;;13.49;70.27;96597.97;4967589;28;20471;-69
2023/09/29 05:01:19;;;;;;;9.53;5.80;;;;;;;13.65;69.57;96600.63;4967433;28;20178;-70
2023/09/29 05:03:47;;;;;;;12.23;5.90;;;;;;;13.68;69.34;96596.06;4966917;28;20228;-70
2023/09/29 05:06:15;;;;;;;15.10;6.37;;;;;;;13.58;69.96;96600.09;4969379;28;20657;-69
2023/09/29 05:08:41;;;;;;;19.43;6.33;;;;;;;13.73;69.38;96604.59;4971315;28;20499;-70
2023/09/29 05:11:06;;;;;;;31.27;7.77;;;;;;;13.70;69.56;96593.34;4970322;28;21043;-70
2023/09/29 05:13:32;;;;;;;50.77;12.77;;;;;;;13.66;69.14;96599.72;4970328;28;20192;-68
2023/09/29 05:16:00;;;;;;;15.40;7.10;;;;;;;13.72;68.71;96605.53;4969706;28;20189;-70
2023/09/29 05:18:26;;;;;;;24.77;8.13;;;;;;;13.67;68.93;96599.63;4970070;28;20197;-69
2023/09/29 05:20:51;;;;;;;30.13;7.57;;;;;;;13.74;68.61;96606.28;4970118;28;20496;-69
2023/09/29 05:23:17;;;;;;;9.70;5.80;;;;;;;13.87;68.22;96606.50;4971813;28;20218;-68
2023/09/29 05:25:47;;;;;;;10.30;7.33;;;;;;;14.16;67.30;96614.59;4969874;28;20177;-69
2023/09/29 05:28:13;;;;;;;8.70;6.10;;;;;;;14.33;66.47;96614.53;4970359;28;20281;-69
2023/09/29 05:30:39;;;;;;;12.20;6.30;;;;;;;14.60;65.11;96612.16;4969771;28;20559;-70
2023/09/29 05:33:04;;;;;;;8.03;6.63;;;;;;;14.59;65.19;96605.16;4969297;28;20782;-70
2023/09/29 05:35:30;;;;;;;10.60;6.60;;;;;;;14.67;64.55;96609.16;4960717;28;20177;-69
2023/09/29 05:37:55;;;;;;;6.20;5.57;;;;;;;14.85;64.01;96609.91;4969760;28;20586;-69
2023/09/29 05:40:21;;;;;;;5.60;5.10;;;;;;;15.07;63.33;96612.16;4969780;28;20200;-70
2023/09/29 05:42:47;;;;;;;8.83;5.70;;;;;;;15.48;62.36;96612.34;4970046;28;20169;-69
2023/09/29 05:45:12;;;;;;;12.40;6.37;;;;;;;15.62;61.30;96612.38;4970211;28;20785;-69
2023/09/29 05:47:38;;;;;;;15.80;6.07;;;;;;;15.82;60.89;96619.13;4969595;28;20185;-70
2023/09/29 05:50:04;;;;;;;7.77;5.87;;;;;;;16.16;59.75;96629.41;4969043;28;20213;-69
2023/09/29 05:52:29;;;;;;;9.10;5.83;;;;;;;16.07;60.00;96625.56;4969206;28;20684;-69
2023/09/29 05:54:55;;;;;;;8.23;5.40;;;;;;;16.28;59.52;96615.41;4969221;28;20417;-69
2023/09/29 05:57:20;;;;;;;9.77;5.30;;;;;;;16.45;59.18;96628.44;4969025;28;20324;-69
2023/09/29 05:59:46;;;;;;;16.43;6.13;;;;;;;16.52;58.92;96627.09;4968641;28;20193;-70
2023/09/29 06:02:11;;;;;;;24.63;6.70;;;;;;;16.52;58.74;96634.19;4969034;28;20244;-70
2023/09/29 06:04:37;;;;;;;10.20;6.00;;;;;;;16.43;58.99;96632.13;4968794;28;20192;-68
2023/09/29 06:07:02;;;;;;;38.43;9.30;;;;;;;16.60;58.47;96629.25;4968907;28;20189;-70
2023/09/29 06:09:29;;;;;;;55.80;10.17;;;;;;;16.48;58.77;96633.53;4969391;28;20205;-69
2023/09/29 06:11:55;;;;;;;17.80;6.40;;;;;;;16.09;60.01;96636.91;4983706;28;20177;-69
2023/09/29 06:14:20;;;;;;;32.93;8.13;;;;;;;16.24;60.12;96638.59;4969071;28;20413;-68
2023/09/29 06:16:46;;;;;;;11.50;5.87;;;;;;;17.24;56.80;96626.00;4967836;28;20173;-70
2023/09/29 06:19:11;;;;;;;15.53;6.33;;;;;;;17.96;54.49;96626.41;4968702;28;20201;-70
2023/09/29 06:21:36;;;;;;;31.43;9.40;;;;;;;17.87;54.49;96629.72;4968777;28;20236;-69
2023/09/29 06:24:02;;;;;;;27.00;7.70;;;;;;;18.14;53.80;96634.88;4968652;28;20173;-70
2023/09/29 06:26:28;;;;;;;34.27;7.67;;;;;;;18.40;53.41;96643.66;4968242;28;20181;-69
2023/09/29 06:28:53;;;;;;;19.70;7.83;;;;;;;19.58;50.02;96629.66;4968253;28;20201;-70
2023/09/29 06:31:19;;;;;;;10.23;6.13;;;;;;;20.43;47.50;96623.97;4968017;28;20570;-70
2023/09/29 06:33:44;;;;;;;10.00;5.90;;;;;;;20.96;46.38;96628.59;4968267;28;20205;-71
2023/09/29 06:36:10;;;;;;;21.23;6.73;;;;;;;21.92;43.78;96632.16;4959979;28;20177;-70
2023/09/29 06:38:35;;;;;;;14.13;6.27;;;;;;;22.50;42.47;96629.78;4968095;28;20225;-70
2023/09/29 06:41:00;;;;;;;12.73;5.70;;;;;;;21.12;45.31;96644.19;4968515;28;20181;-70
2023/09/29 06:43:26;;;;;;;11.20;6.27;;;;;;;20.33;47.71;96641.63;4968547;28;20363;-69
2023/09/29 06:45:51;;;;;;;9.20;5.77;;;;;;;20.47;47.26;96652.03;4970297;28;20170;-69
2023/09/29 06:48:17;;;;;;;10.23;4.77;;;;;;;21.42;45.46;96647.97;4968735;28;20199;-68
2023/09/29 06:50:42;;;;;;;10.63;5.47;;;;;;;21.18;45.73;96653.50;4968528;28;20224;-69
2023/09/29 06:53:07;;;;;;;7.53;5.67;;;;;;;20.34;47.89;96650.47;4968582;28;20798;-70
2023/09/29 06:55:33;;;;;;;9.57;6.00;;;;;;;21.03;46.93;96648.47;4967906;28;20173;-70
2023/09/29 06:57:59;;;;;;;9.83;5.60;;;;;;;22.54;42.95;96636.56;4968156;28;20212;-69
2023/09/29 07:00:25;;;;;;;13.10;6.00;;;;;;;23.08;41.87;96639.81;4968095;28;20850;-69
2023/09/29 07:02:50;;;;;;;7.80;5.60;;;;;;;23.47;40.97;96637.16;4968076;28;20173;-68
2023/09/29 07:05:16;;;;;;;16.00;6.70;;;;;;;23.60;41.04;96639.56;4973300;28;20943;-70
2023/09/29 07:07:41;;;;;;;14.07;7.07;;;;;;;23.34;41.64;96648.16;4967615;28;20260;-69
2023/09/29 07:10:08;;;;;;;11.60;6.83;;;;;;;23.06;42.21;96646.31;4967738;28;20220;-69
2023/09/29 07:12:34;;;;;;;10.30;7.10;;;;;;;23.36;41.88;96648.00;4967860;28;20205;-69
2023/09/29 07:15:00;;;;;;;7.63;5.87;;;;;;;23.16;42.40;96642.63;4967885;28;20522;-69
2023/09/29 07:17:25;;;;;;;11.20;6.70;;;;;;;22.95;43.48;96644.56;4967471;28;20173;-70
2023/09/29 07:19:51;;;;;;;16.33;6.37;;;;;;;23.18;42.73;96640.66;4967939;28;20440;-68
2023/09/29 07:22:16;;;;;;;9.00;6.83;;;;;;;23.12;42.75;96640.38;4968122;28;20654;-69
2023/09/29 07:24:41;;;;;;;7.83;7.03;;;;;;;23.09;42.95;96640.66;4968218;28;20251;-69
2023/09/29 07:27:08;;;;;;;11.27;7.10;;;;;;;22.95;43.41;96647.22;4968227;28;20224;-70
2023/09/29 07:29:34;;;;;;;8.90;6.57;;;;;;;22.83;43.98;96646.50;4966924;28;20221;-69
2023/09/29 07:31:59;;;;;;;9.90;6.53;;;;;;;23.41;42.53;96646.59;4967789;28;20536;-69
2023/09/29 07:34:27;;;;;;;10.03;6.30;;;;;;;22.76;44.13;96643.53;4967831;28;20405;-69
2023/09/29 07:36:53;;;;;;;9.57;6.97;;;;;;;21.96;46.40;96658.47;4967440;28;20946;-68
2023/09/29 07:39:19;;;;;;;11.77;7.00;;;;;;;21.90;46.93;96658.19;4967154;28;20948;-69
2023/09/29 07:41:44;;;;;;;11.30;8.67;;;;;;;22.66;45.36;96656.03;4967699;28;20455;-69
2023/09/29 07:44:09;;;;;;;8.33;7.33;;;;;;;22.87;44.76;96653.28;4967926;28;20177;-71
2023/09/29 07:46:35;;;;;;;14.57;8.40;;;;;;;23.16;44.46;96656.03;4967303;28;20236;-69
2023/09/29 07:49:04;;;;;;;8.83;7.57;;;;;;;23.25;44.18;96652.50;4967880;28;20205;-70
2023/09/29 07:51:30;;;;;;;13.57;7.80;;;;;;;23.59;43.51;96656.59;4967916;28;20212;-70
2023/09/29 07:53:56;;;;;;;15.77;8.20;;;;;;;23.55;43.75;96656.06;4968600;28;20417;-70
2023/09/29 07:56:22;;;;;;;17.93;9.67;;;;;;;23.40;44.61;96655.59;4968051;28;20417;-70
2023/09/29 07:58:47;;;;;;;11.33;8.50;;;;;;;23.27;44.63;96656.88;4968214;28;20437;-69
2023/09/29 08:01:13;;;;;;;12.30;8.13;;;;;;;23.49;44.48;96656.59;4968418;28;20947;-69
2023/09/29 08:03:38;;;;;;;26.07;9.27;;;;;;;23.51;44.48;96648.44;4967276;28;20182;-71
2023/09/29 08:06:04;;;;;;;8.37;6.93;;;;;;;23.41;44.87;96651.09;4967379;28;20260;-70
2023/09/29 08:08:29;;;;;;;22.93;9.20;;;;;;;23.59;44.67;96648.56;4967320;28;20649;-68
2023/09/29 08:10:55;;;;;;;14.03;7.77;;;;;;;23.66;44.63;96649.69;4965675;28;20205;-69
2023/09/29 08:13:23;;;;;;;14.53;7.63;;;;;;;23.98;44.26;96656.59;4967522;28;20228;-69
2023/09/29 08:15:49;;;;;;;22.73;9.67;;;;;;;24.16;43.47;96651.31;4967157;28;20182;-70
2023/09/29 08:18:14;;;;;;;42.60;12.80;;;;;;;24.23;43.43;96653.25;4967199;28;20495;-70
2023/09/29 08:20:41;;;;;;;10.70;7.80;;;;;;;24.21;43.97;96655.28;4966808;28;20177;-68
2023/09/29 08:23:06;;;;;;;13.70;8.67;;;;;;;24.36;43.69;96661.00;4967180;28;20197;-69
2023/09/29 08:25:33;;;;;;;18.40;8.93;;;;;;;24.56;43.00;96658.25;4966847;28;20464;-69
2023/09/29 08:28:02;;;;;;;11.77;8.00;;;;;;;24.53;43.20;96659.41;4967133;28;20170;-69
2023/09/29 08:30:27;;;;;;;9.23;7.00;;;;;;;24.79;42.62;96656.88;4967200;28;20467;-69
2023/09/29 08:32:53;;;;;;;9.60;7.70;;;;;;;24.13;44.30;96665.84;4967002;28;20429;-69
2023/09/29 08:35:18;;;;;;;13.43;8.43;;;;;;;24.30;44.19;96667.78;4966792;28;20170;-68
2023/09/29 08:37:44;;;;;;;9.33;7.57;;;;;;;24.66;43.71;96667.97;4966595;28;20680;-69
2023/09/29 08:40:13;;;;;;;11.80;8.10;;;;;;;24.45;43.58;96661.94;4967683;28;20202;-69
2023/09/29 08:42:40;;;;;;;11.27;7.50;;;;;;;24.24;44.78;96663.00;4961363;28;20445;-69
2023/09/29 08:45:09;;;;;;;9.50;8.33;;;;;;;24.57;43.74;96665.31;4970380;28;20499;-69
2023/09/29 08:47:40;;;;;;;9.80;8.60;;;;;;;24.51;43.90;96664.06;4970220;28;20409;-69
2023/09/29 08:50:07;;;;;;;7.57;6.77;;;;;;;24.70;43.49;96672.03;4969997;28;21096;-67
2023/09/29 08:52:33;;;;;;;13.93;7.27;;;;;;;24.88;43.19;96669.41;4970278;28;20420;-70
2023/09/29 08:54:59;;;;;;;9.10;7.53;;;;;;;24.91;42.90;96669.09;4970285;28;20412;-69
2023/09/29 08:57:25;;;;;;;13.97;8.50;;;;;;;24.91;43.16;96668.25;4969832;28;20279;-69
2023/09/29 08:59:55;;;;;;;22.90;8.60;;;;;;;24.26;44.64;96671.75;4969959;28;20632;-70
2023/09/29 09:02:20;;;;;;;9.73;7.20;;;;;;;24.02;45.71;96676.75;4970268;28;20523;-69
2023/09/29 09:04:47;;;;;;;21.30;9.73;;;;;;;24.18;45.37;96660.91;4970497;28;20830;-69
2023/09/29 09:07:14;;;;;;;11.73;6.80;;;;;;;24.16;45.54;96657.50;4970304;28;20169;-69
2023/09/29 09:09:46;;;;;;;8.83;7.20;;;;;;;24.74;44.50;96667.22;4970241;28;20432;-69
2023/09/29 09:12:12;;;;;;;22.87;9.80;;;;;;;24.68;44.80;96665.97;4970276;28;20512;-69
2023/09/29 09:14:40;;;;;;;9.67;7.40;;;;;;;24.83;44.63;96665.50;4970007;28;20488;-70
2023/09/29 09:17:07;;;;;;;9.70;7.13;;;;;;;24.88;44.47;96657.84;4969705;28;20243;-70
2023/09/29 09:19:45;;;;;;;13.40;7.83;;;;;;;25.18;43.86;96658.50;4970112;28;20498;-69
2023/09/29 09:22:25;;;;;;;20.33;7.93;;;;;;;25.52;43.61;96651.47;4970150;28;20526;-68
2023/09/29 09:25:01;;;;;;;12.53;8.30;;;;;;;25.72;42.82;96649.44;4969986;28;20935;-69
2023/09/29 09:27:35;;;;;;;14.40;7.80;;;;;;;25.75;42.53;96649.16;4970012;28;20463;-69
2023/09/29 09:30:01;;;;;;;10.43;7.63;;;;;;;25.89;42.33;96655.84;4970167;28;20916;-69
2023/09/29 09:32:27;;;;;;;20.80;8.40;;;;;;;25.91;42.53;96656.50;4969959;28;20428;-69
2023/09/29 09:34:52;;;;;;;17.03;7.33;;;;;;;25.99;42.03;96655.75;4969852;28;20188;-70
2023/09/29 09:37:28;;;;;;;27.17;8.40;;;;;;;25.72;42.38;96648.59;4970239;28;20924;-70
2023/09/29 09:39:57;;;;;;;15.00;6.90;;;;;;;25.87;42.23;96647.09;4970159;28;20287;-68
2023/09/29 09:42:25;;;;;;;14.50;6.63;;;;;;;26.00;42.24;96643.13;4970203;28;20423;-68
2023/09/29 09:44:51;;;;;;;9.90;7.00;;;;;;;26.01;42.01;96639.44;4970076;28;20427;-70
2023/09/29 09:47:19;;;;;;;34.10;8.17;;;;;;;26.09;41.95;96636.81;4969444;28;20410;-69
2023/09/29 09:49:47;;;;;;;18.90;6.47;;;;;;;25.84;42.34;96636.59;4969627;28;20874;-70
2023/09/29 09:52:23;;;;;;;18.43;7.17;;;;;;;25.83;42.80;96647.53;4969789;28;20809;-70
2023/09/29 09:54:52;;;;;;;11.80;7.00;;;;;;;25.36;43.36;96651.31;4969678;28;20398;-70
2023/09/29 09:57:43;;;;;;;11.90;6.70;;;;;;;25.48;43.08;96657.28;4969312;28;20420;-69
2023/09/29 10:00:10;;;;;;;12.00;7.13;;;;;;;25.78;42.69;96642.59;4970770;28;20547;-69
2023/09/29 10:02:53;;;;;;;7.60;6.60;;;;;;;25.84;42.19;96644.66;4969931;28;20503;-68
2023/09/29 10:05:23;;;;;;;14.77;7.00;;;;;;;25.84;42.62;96641.97;4969705;28;20521;-69
2023/09/29 10:07:49;;;;;;;12.40;6.50;;;;;;;25.99;42.55;96644.97;4969798;28;20475;-68
2023/09/29 10:10:34;;;;;;;10.83;6.60;;;;;;;26.13;42.11;96638.19;4969238;28;20472;-69
2023/09/29 10:13:03;;;;;;;30.53;9.73;;;;;;;26.18;42.09;96635.88;4969864;28;20495;-68
2023/09/29 10:15:32;;;;;;;9.60;5.80;;;;;;;26.10;42.17;96650.13;4969112;28;20492;-68
2023/09/29 10:18:21;;;;;;;15.00;6.73;;;;;;;26.20;41.90;96636.56;4968821;28;20424;-70
2023/09/29 10:21:00;;;;;;;17.30;6.90;;;;;;;25.95;42.57;96639.06;4968246;28;20924;-70
2023/09/29 10:23:26;;;;;;;26.77;7.20;;;;;;;26.20;42.15;96639.25;4968770;28;20431;-67
2023/09/29 10:25:59;;;;;;;14.00;6.60;;;;;;;26.11;42.71;96624.88;4960806;28;20855;-70
2023/09/29 10:28:35;;;;;;;9.73;5.90;;;;;;;26.10;42.31;96638.47;4968731;28;20193;-68
2023/09/29 10:31:08;;;;;;;15.87;6.67;;;;;;;26.19;42.33;96640.22;4968591;28;20462;-69
2023/09/29 10:33:53;;;;;;;9.20;6.43;;;;;;;26.21;42.76;96640.91;4968717;28;20405;-68
2023/09/29 10:36:20;;;;;;;9.47;6.03;;;;;;;26.39;42.33;96635.47;4968235;28;20519;-70
2023/09/29 10:38:47;;;;;;;11.73;6.67;;;;;;;26.40;42.08;96635.31;4968773;28;20448;-69
2023/09/29 10:41:14;;;;;;;10.60;6.63;;;;;;;26.50;42.04;96634.34;4969400;28;20972;-70
2023/09/29 10:43:42;;;;;;;9.43;6.47;;;;;;;26.21;42.84;96632.00;4968474;28;20413;-69
2023/09/29 10:46:08;;;;;;;7.60;6.27;;;;;;;26.23;42.80;96619.25;4968499;28;20471;-69
2023/09/29 10:48:43;;;;;;;16.47;6.43;;;;;;;26.00;43.38;96618.94;4968307;28;20428;-70
2023/09/29 10:51:08;;;;;;;12.20;6.20;;;;;;;26.00;43.39;96617.06;4967979;28;20295;-69
2023/09/29 10:53:40;;;;;;;12.83;6.30;;;;;;;25.95;43.44;96628.31;4968067;28;20439;-69
2023/09/29 10:56:05;;;;;;;12.10;7.10;;;;;;;25.89;43.66;96617.34;4967572;28;20170;-69
2023/09/29 10:58:37;;;;;;;14.97;7.33;;;;;;;25.83;43.68;96626.00;4968302;28;20448;-69
2023/09/29 11:01:03;;;;;;;11.70;6.20;;;;;;;25.69;44.92;96617.50;4967668;28;20185;-69
2023/09/29 11:03:30;;;;;;;19.70;6.90;;;;;;;25.53;44.83;96620.88;4967207;28;20428;-69
2023/09/29 11:05:58;;;;;;;15.10;7.33;;;;;;;25.38;45.29;96613.56;4967695;28;20217;-70
2023/09/29 11:08:32;;;;;;;8.63;6.03;;;;;;;25.53;45.14;96620.88;4967919;28;20632;-69
2023/09/29 11:11:05;;;;;;;14.40;6.57;;;;;;;25.75;44.93;96610.69;4967530;28;20464;-70
2023/09/29 11:13:31;;;;;;;15.23;6.47;;;;;;;26.16;44.22;96602.91;4968090;28;20432;-71
2023/09/29 11:15:58;;;;;;;10.03;5.57;;;;;;;26.28;43.16;96592.69;4967450;28;20509;-70
2023/09/29 11:18:25;;;;;;;9.53;6.23;;;;;;;26.45;42.43;96599.00;4967568;28;20494;-68
2023/09/29 11:20:52;;;;;;;13.10;5.80;;;;;;;26.54;41.96;96579.22;4967894;28;20419;-71
2023/09/29 11:23:18;;;;;;;14.73;5.67;;;;;;;26.75;41.36;96578.78;4967616;28;20484;-69
2023/09/29 11:25:48;;;;;;;8.47;6.00;;;;;;;26.58;41.67;96591.34;4967017;28;20423;-69
2023/09/29 11:28:15;;;;;;;6.93;5.40;;;;;;;26.48;41.90;96594.16;4967179;28;20289;-69